ADDS METAR Data INFO
IDs: Format: Raw Decoded Include TAF

Data at: 1533 UTC 18 Jun 2018

K06D 181515Z AUTO 04007KT 10SM CLR 20/09 A3019 RMK AO2
K06D 181455Z AUTO 05008KT 10SM CLR 20/07 A3019 RMK AO2
K06D 181435Z AUTO 03007KT 10SM CLR 20/07 A3019 RMK AO2
K06D 181415Z AUTO 02007KT 10SM CLR 19/07 A3019 RMK AO2
K06D 181355Z AUTO 01006KT 10SM CLR 19/07 A3019 RMK AO2
K06D 181335Z AUTO 34005KT 10SM CLR 19/09 A3019 RMK AO2
K06D 181315Z AUTO 34005KT 10SM CLR 19/10 A3018 RMK AO2
K06D 181255Z AUTO 00000KT 10SM CLR 17/12 A3018 RMK AO2
K06D 181235Z AUTO 00000KT 10SM CLR 16/13 A3017 RMK AO2
K06D 181215Z AUTO 00000KT 10SM CLR 15/13 A3017 RMK AO2
K06D 181155Z AUTO 00000KT 10SM CLR 13/12 A3017 RMK AO2
K06D 181135Z AUTO 00000KT 10SM CLR 11/11 A3016 RMK AO2
K06D 181115Z AUTO 32004KT 10SM CLR 10/10 A3016 RMK AO2
K06D 181055Z AUTO 31005KT 10SM CLR 10/10 A3015 RMK AO2
K06D 181035Z AUTO 30006KT 10SM CLR 10/10 A3015 RMK AO2
K06D 181015Z AUTO 31005KT 10SM CLR 10/10 A3015 RMK AO2
K06D 180955Z AUTO 31005KT 10SM CLR 11/10 A3015 RMK AO2
K06D 180935Z AUTO 31004KT 10SM CLR 10/10 A3014 RMK AO2
K06D 180915Z AUTO 31003KT 10SM CLR 11/11 A3014 RMK AO2
K06D 180855Z AUTO 32004KT 10SM CLR 10/10 A3013 RMK AO2
K06D 180835Z AUTO 30004KT 10SM CLR 11/11 A3013 RMK AO2
K06D 180815Z AUTO 00000KT 10SM CLR 11/11 A3013 RMK AO2
K06D 180735Z AUTO 32005KT 10SM CLR 11/11 A3011 RMK AO2
K06D 180715Z AUTO 33005KT 10SM CLR 11/11 A3012 RMK AO2
K06D 180655Z AUTO 33006KT 10SM CLR 11/11 A3012 RMK AO2
K06D 180635Z AUTO 34005KT 10SM CLR 12/12 A3011 RMK AO2
K06D 180615Z AUTO 36004KT 10SM CLR 13/12 A3011 RMK AO2
K06D 180555Z AUTO 34003KT 10SM FEW070 13/12 A3010 RMK AO2
K06D 180535Z AUTO 35004KT 10SM SCT070 13/13 A3010 RMK AO2
K06D 180455Z AUTO 00000KT 10SM FEW070 14/13 A3009 RMK AO2
K06D 180435Z AUTO 29004KT 10SM CLR 14/14 A3009 RMK AO2
K06D 180415Z AUTO 31003KT 10SM CLR 14/14 A3008 RMK AO2
K06D 180355Z AUTO 30004KT 10SM CLR 15/14 A3008 RMK AO2
K06D 180335Z AUTO 30004KT 10SM CLR 16/13 A3007 RMK AO2
K06D 180315Z AUTO 31005KT 10SM CLR 16/13 A3007 RMK AO2
K06D 180255Z AUTO 31004KT 10SM CLR 17/14 A3006 RMK AO2
K06D 180235Z AUTO 31005KT 10SM CLR 18/14 A3006 RMK AO2
K06D 180215Z AUTO 34004KT 10SM CLR 19/14 A3005 RMK AO2
K06D 180155Z AUTO 35005KT 10SM CLR 20/12 A3005 RMK AO2
K06D 180135Z AUTO 35004KT 10SM CLR 20/12 A3004 RMK AO2
K06D 180115Z AUTO 35004KT 10SM CLR 20/11 A3004 RMK AO2
K06D 180055Z AUTO 35007KT 10SM CLR 22/09 A3004 RMK AO2
K06D 180035Z AUTO 01004KT 10SM CLR 22/09 A3004 RMK AO2
K06D 180015Z AUTO 02006KT 10SM CLR 21/09 A3004 RMK AO2
K06D 172355Z AUTO 34008KT 10SM FEW055 22/09 A3004 RMK AO2
K06D 172335Z AUTO 02008KT 10SM FEW055 22/09 A3004 RMK AO2
K06D 172315Z AUTO 35009KT 10SM CLR 22/08 A3004 RMK AO2
K06D 172255Z AUTO 01011KT 10SM CLR 22/08 A3003 RMK AO2
K06D 172235Z AUTO 02008KT 10SM CLR 22/08 A3003 RMK AO2
K06D 172215Z AUTO 36010KT 10SM CLR 22/08 A3003 RMK AO2
K06D 172155Z AUTO 35010KT 10SM FEW050 22/08 A3004 RMK AO2
K06D 172135Z AUTO 33007KT 10SM FEW050 SCT065 22/09 A3004 RMK AO2
K06D 172115Z AUTO 34008KT 10SM FEW049 SCT060 22/09 A3004 RMK AO2
K06D 172055Z AUTO 36007KT 10SM FEW048 FEW060 21/10 A3003 RMK AO2
K06D 172035Z AUTO 34008G15KT 10SM FEW065 22/10 A3003 RMK AO2
K06D 172015Z AUTO 36012KT 10SM FEW048 FEW060 22/10 A3003 RMK AO2
K06D 171955Z AUTO 35011KT 10SM FEW048 SCT060 21/10 A3002 RMK AO2
K06D 171935Z AUTO 03009G14KT 10SM FEW048 21/09 A3003 RMK AO2
K06D 171915Z AUTO 01008KT 10SM CLR 21/09 A3002 RMK AO2
K06D 171855Z AUTO 36008KT 10SM CLR 20/09 A3002 RMK AO2
K06D 171835Z AUTO 36009KT 10SM FEW043 FEW048 SCT065 20/09 A3003 RMK AO2
K06D 171815Z AUTO 35011KT 10SM FEW043 SCT048 SCT065 20/10 A3003 RMK AO2
K06D 171755Z AUTO 35010KT 10SM FEW048 FEW055 20/10 A3003 RMK AO2
K06D 171735Z AUTO 34009KT 10SM FEW042 FEW055 20/10 A3003 RMK AO2
K06D 171715Z AUTO 01007G12KT 10SM FEW043 SCT055 20/10 A3002 RMK AO2
K06D 171655Z AUTO 02012KT 10SM FEW043 FEW055 20/10 A3002 RMK AO2
K06D 171635Z AUTO 03010G15KT 10SM CLR 19/11 A3001 RMK AO2
K06D 171615Z AUTO 03011G16KT 10SM CLR 19/11 A3001 RMK AO2
K06D 171555Z AUTO 01011KT 10SM CLR 18/12 A3000 RMK AO2
K06D 171535Z AUTO 36011KT 10SM CLR 18/13 A3000 RMK AO2
K06D 171515Z AUTO 36010KT 10SM CLR 17/12 A3000 RMK AO2
K06D 171455Z AUTO 36010KT 10SM CLR 17/13 A3000 RMK AO2
K06D 171435Z AUTO 36008KT 10SM CLR 16/13 A3000 RMK AO2
K06D 171415Z AUTO 35009KT 10SM CLR 15/13 A2999 RMK AO2
K06D 171355Z AUTO 35007KT 10SM CLR 15/13 A2999 RMK AO2
K06D 171335Z AUTO 33008KT 10SM CLR 14/13 A2998 RMK AO2
K06D 171315Z AUTO 33008KT 10SM CLR 14/13 A2998 RMK AO2
K06D 171255Z AUTO 33010KT 10SM CLR 14/13 A2997 RMK AO2
K06D 171235Z AUTO 32010KT 10SM CLR 13/13 A2998 RMK AO2
K06D 171215Z AUTO 33010KT 10SM CLR 13/13 A2996 RMK AO2
K06D 171155Z AUTO 33009KT 10SM CLR 13/13 A2996 RMK AO2
K06D 171135Z AUTO 33008KT 10SM FEW070 13/13 A2996 RMK AO2
K06D 171115Z AUTO 33007KT 10SM BKN070 13/13 A2995 RMK AO2
K06D 171055Z AUTO 33007KT 10SM BKN065 BKN080 13/13 A2995 RMK AO2
K06D 171035Z AUTO 33007KT 10SM BKN065 BKN080 14/14 A2994 RMK AO2
K06D 171015Z AUTO 32008KT 10SM OVC060 14/13 A2995 RMK AO2
K06D 170955Z AUTO 34007KT 10SM OVC060 14/13 A2994 RMK AO2
K06D 170935Z AUTO 34008KT 10SM OVC055 14/14 A2995 RMK AO2
K06D 170915Z AUTO 34007KT 10SM OVC055 14/14 A2994 RMK AO2
K06D 170855Z AUTO 32006KT 10SM OVC055 14/14 A2995 RMK AO2
K06D 170835Z AUTO 33007KT 10SM OVC055 14/14 A2994 RMK AO2
K06D 170815Z AUTO 33006KT 10SM OVC050 14/13 A2994 RMK AO2
K06D 170755Z AUTO 33007KT 10SM OVC050 14/13 A2994 RMK AO2
K06D 170735Z AUTO 34006KT 10SM OVC050 14/13 A2994 RMK AO2
K06D 170715Z AUTO 34009KT 10SM OVC050 14/13 A2993 RMK AO2
K06D 170655Z AUTO 33010KT 10SM OVC049 14/14 A2993 RMK AO2
K06D 170635Z AUTO 33010KT 10SM OVC050 14/14 A2994 RMK AO2
K06D 170615Z AUTO 34006KT 10SM OVC050 15/14 A2995 RMK AO2
K06D 170555Z AUTO 34008KT 10SM OVC048 15/13 A2994 RMK AO2
K06D 170535Z AUTO 33008KT 10SM OVC048 14/14 A2994 RMK AO2
K06D 170515Z AUTO 34003KT 10SM OVC048 15/14 A2995 RMK AO2
K06D 170455Z AUTO 03004KT 10SM OVC046 15/13 A2993 RMK AO2
K06D 170435Z AUTO 35007KT 10SM OVC045 15/13 A2992 RMK AO2
K06D 170415Z AUTO 34008KT 10SM OVC043 15/13 A2990 RMK AO2
K06D 170355Z AUTO 33008KT 10SM OVC043 14/13 A2991 RMK AO2
K06D 170335Z AUTO 34007KT 10SM OVC042 15/13 A2990 RMK AO2